Time;durP1;ratioP1;P1;durP2;ratioP2;P2;SDS_P1;SDS_P2;PMS_P1;PMS_P2;Temp;Humidity;BMP_temperature;BMP_pressure;BME280_temperature;BME280_humidity;BME280_pressure;Samples;Min_cycle;Max_cycle;Signal;HPM_P1;HPM_P2
2022/09/21 11:40:09;;;;;;;833.13;777.60;;;18.10;99.90;;;17.52;82.14;101002.50;4968263;28;20213;-67
2022/09/21 11:43:05;;;;;;;857.90;801.65;;;18.70;99.90;;;18.60;84.91;101168.19;4933277;28;20216;-67
2022/09/21 11:45:56;;;;;;;862.35;806.00;;;18.90;99.90;;;18.58;82.80;101097.69;4915600;28;20208;-66
2022/09/21 11:49:01;;;;;;;881.58;824.35;;;19.20;99.90;;;18.81;77.69;101004.50;4946710;28;20216;-67
2022/09/21 11:52:03;;;;;;;875.67;819.53;;;19.90;99.90;;;19.18;80.78;101069.13;4915003;29;20214;-67
2022/09/21 11:55:22;;;;;;;882.10;825.08;;;19.80;99.90;;;19.09;77.05;101016.53;4917734;29;20229;-67
2022/09/21 11:58:18;;;;;;;882.78;825.42;;;19.60;99.90;;;18.41;74.97;100849.72;4949144;29;20218;-67
2022/09/21 12:01:30;;;;;;;847.95;793.75;;;19.30;99.90;;;19.30;76.67;101009.03;4929981;29;20253;-67
2022/09/21 12:04:34;;;;;;;865.85;809.88;;;19.40;99.90;;;19.41;77.77;100986.47;4938168;28;20619;-67
2022/09/21 12:07:37;;;;;;;859.20;803.75;;;19.80;99.90;;;19.59;75.78;100971.88;4918172;29;20223;-67
2022/09/21 12:10:36;;;;;;;886.70;828.92;;;20.30;99.90;;;19.30;76.70;100891.03;4913479;29;20596;-67
2022/09/21 12:13:19;;;;;;;880.35;823.33;;;20.50;99.90;;;18.43;75.98;100758.66;4933138;29;20210;-67
2022/09/21 12:16:15;;;;;;;900.20;841.90;;;19.40;99.90;;;19.85;80.72;101027.72;4916425;28;20836;-67
2022/09/21 12:18:52;;;;;;;883.95;825.70;;;19.70;99.90;;;19.97;80.02;101010.50;4928877;29;20239;-67
2022/09/21 12:21:29;;;;;;;878.53;821.97;;;20.10;99.90;;;20.08;78.85;100981.63;4913710;29;20200;-67
2022/09/21 12:24:04;;;;;;;904.10;845.33;;;20.40;99.90;;;20.25;76.57;100939.16;4917115;28;20220;-67
2022/09/21 12:26:49;;;;;;;898.20;840.78;;;20.70;99.90;;;19.99;76.78;100898.59;4894445;28;20219;-67
2022/09/21 12:29:33;;;;;;;907.22;847.38;;;20.60;99.90;;;20.36;78.34;100950.56;4900869;29;20209;-67
2022/09/21 12:32:32;;;;;;;908.22;848.83;;;20.90;99.90;;;20.24;78.38;100891.75;4923346;29;20719;-67
2022/09/21 12:35:05;;;;;;;905.42;846.92;;;20.80;99.90;;;20.01;74.42;100794.75;4930883;29;20292;-67
2022/09/21 12:37:48;;;;;;;896.13;839.40;;;20.80;99.90;;;19.91;76.39;100807.50;4966491;23;20609;-82
2022/09/21 12:41:04;;;;;;;900.33;843.33;;;20.50;99.90;;;19.76;75.70;100776.53;5034029;28;20207;-82
2022/09/21 12:43:49;;;;;;;888.83;832.60;;;20.40;99.90;;;19.85;75.84;100783.47;5033835;28;20594;-82
2022/09/21 12:46:29;;;;;;;901.50;845.10;;;20.30;99.90;;;20.02;78.60;100845.72;5016256;28;20203;-81
2022/09/21 12:49:04;;;;;;;904.40;847.78;;;20.10;99.90;;;19.25;76.24;100678.41;4999613;28;20226;-82
2022/09/21 12:51:42;;;;;;;900.47;844.17;;;20.30;99.90;;;19.01;76.83;100674.47;5017846;28;20383;-82
2022/09/21 12:54:25;;;;;;;907.47;850.65;;;19.80;99.90;;;18.96;77.14;100671.91;5017662;28;20226;-80
2022/09/21 12:57:12;;;;;;;902.63;846.35;;;19.80;99.90;;;19.47;75.29;100715.44;5018654;28;20245;-80
2022/09/21 13:00:09;;;;;;;897.67;841.78;;;20.00;99.90;;;19.80;72.16;100691.47;5018392;28;20199;-80
2022/09/21 13:02:48;;;;;;;896.97;841.10;;;20.20;99.90;;;19.84;73.53;100700.31;5031762;28;20214;-80
2022/09/21 13:05:42;;;;;;;900.55;844.00;;;20.20;99.90;;;20.10;74.73;100732.75;4997467;28;20218;-79
2022/09/21 13:08:20;;;;;;;903.22;846.80;;;20.40;99.90;;;19.13;71.15;100519.59;5015521;28;20203;-80
2022/09/21 13:11:03;;;;;;;887.08;830.83;;;20.20;99.90;;;20.62;73.69;100772.59;5013356;28;20210;-79
2022/09/21 13:13:59;;;;;;;895.10;838.83;;;20.60;99.90;;;20.39;72.90;100713.22;5004545;28;20198;-80
2022/09/21 13:16:30;;;;;;;897.60;841.47;;;20.70;99.90;;;20.74;71.05;100723.00;5012552;28;20211;-80
2022/09/21 13:19:04;;;;;;;910.28;853.40;;;20.90;99.90;;;21.19;72.32;100747.72;5017569;28;20234;-80
2022/09/21 13:21:32;;;;;;;914.70;857.47;;;21.90;99.90;;;20.63;71.46;100631.94;5032876;28;20577;-81
2022/09/21 13:24:03;;;;;;;939.60;880.47;;;21.90;99.90;;;21.30;73.94;100761.75;5029407;28;20633;-81
2022/09/21 13:26:53;;;;;;;937.88;879.25;;;21.70;99.90;;;21.39;69.16;100680.78;5015373;28;20584;-81
2022/09/21 13:30:21;;;;;;;952.13;892.15;;;22.10;99.90;;;20.38;68.66;100488.50;5027218;28;20217;-82
2022/09/21 13:32:51;;;;;;;945.03;886.63;;;21.60;99.90;;;19.73;74.19;100500.22;5013584;28;20244;-82
2022/09/21 13:35:53;;;;;;;963.40;901.72;;;21.30;99.90;;;19.43;75.02;100506.34;5006993;28;20225;-83
2022/09/21 13:38:25;;;;;;;960.30;900.00;;;20.90;99.90;;;19.60;72.96;100488.06;5027049;28;20672;-83
2022/09/21 13:41:17;;;;;;;963.03;902.92;;;21.30;99.90;;;19.36;72.87;100443.06;5026468;28;20213;-84
2022/09/21 13:43:56;;;;;;;973.55;912.45;;;21.30;99.90;;;19.09;74.16;100431.25;5028252;28;20213;-84
2022/09/21 13:46:34;;;;;;;959.20;899.90;;;20.40;99.90;;;19.61;75.86;100518.44;5012327;28;20218;-84
2022/09/21 13:49:11;;;;;;;953.78;894.70;;;20.40;99.90;;;20.11;72.61;100538.53;5027495;28;20249;-85
2022/09/21 13:52:03;;;;;;;947.67;889.15;;;20.60;99.90;;;20.09;73.70;100525.13;5012432;28;20207;-83
2022/09/21 13:54:49;;;;;;;944.53;885.53;;;20.80;99.90;;;19.81;70.60;100422.19;5011883;28;20229;-83
2022/09/21 13:57:40;;;;;;;938.65;879.58;;;20.60;99.90;;;19.52;73.81;100431.06;5023194;28;20202;-84
2022/09/21 14:00:42;;;;;;;930.58;872.58;;;20.50;99.90;;;19.04;71.42;100329.53;5021331;28;20210;-84
2022/09/21 14:03:36;;;;;;;937.00;879.30;;;20.60;99.90;;;20.72;72.86;100575.22;4989652;28;20225;-83
2022/09/21 14:06:16;;;;;;;932.92;875.25;;;20.90;99.90;;;20.44;69.69;100469.53;5008251;28;20241;-83
2022/09/21 14:09:07;;;;;;;958.17;898.25;;;21.10;99.90;;;20.99;69.63;100521.56;5024661;28;20234;-83
2022/09/21 14:11:40;;;;;;;922.05;870.78;;;21.20;99.90;;;20.92;70.46;100488.63;4996637;28;20214;-82
2022/09/21 14:14:43;;;;;;;979.88;918.17;;;21.40;99.90;;;20.94;67.30;100433.00;5006788;28;20610;-83
2022/09/21 14:17:39;;;;;;;965.30;904.35;;;21.70;99.90;;;21.01;68.94;100449.81;5022078;28;20205;-82
2022/09/21 14:20:32;;;;;;;956.97;896.33;;;21.60;99.90;;;20.66;68.23;100371.19;5009790;28;20217;-83
2022/09/21 14:23:27;;;;;;;426.40;402.23;;;21.40;99.90;;;21.02;68.70;100419.31;5012687;28;20209;-84
2022/09/21 14:26:00;;;;;;;730.05;688.80;;;21.40;99.90;;;20.01;65.73;100186.25;5031749;28;20238;-84
2022/09/21 14:28:50;;;;;;;27.35;5.82;;;21.40;99.90;;;19.33;67.17;100146.38;5028732;28;20230;-83
2022/09/21 14:31:32;;;;;;;25.83;5.35;;;20.70;99.90;;;19.59;69.36;100246.66;5027375;28;20205;-83
2022/09/21 14:34:03;;;;;;;22.42;4.88;;;20.50;99.90;;;19.10;74.12;100257.00;4983008;28;20234;-82
2022/09/21 14:36:44;;;;;;;43.08;9.38;;;20.30;99.90;;;18.92;70.99;100197.69;5004417;28;20222;-84
2022/09/21 14:39:38;;;;;;;26.30;5.32;;;19.80;99.90;;;19.18;70.13;100220.13;5018600;28;20227;-82
2022/09/21 14:42:18;;;;;;;23.30;5.55;;;19.90;99.90;;;19.28;70.92;100227.88;5003525;28;20215;-82
2022/09/21 14:44:50;;;;;;;13.80;3.55;;;20.10;99.90;;;20.27;69.89;100353.66;5008581;28;20226;-81
2022/09/21 14:47:43;;;;;;;6.70;2.42;;;20.50;99.90;;;19.41;66.26;100130.94;5008752;28;20221;-81
2022/09/21 14:50:37;;;;;;;6.35;2.58;;;20.70;99.90;;;19.53;69.85;100212.88;5007348;28;20210;-82
2022/09/21 14:53:51;;;;;;;3.10;1.60;;;20.40;99.90;;;19.09;68.32;100117.66;5003834;28;20199;-82
2022/09/21 14:56:33;;;;;;;5.07;2.47;;;20.50;99.90;;;19.05;67.99;100108.84;5002278;28;20207;-84
2022/09/21 14:59:46;;;;;;;3.17;1.60;;;20.60;99.90;;;19.62;71.59;100233.16;5019952;28;20215;-84
2022/09/21 15:02:26;;;;;;;1.73;1.00;;;20.40;99.90;;;19.43;69.78;100171.09;5010227;28;20207;-82
2022/09/21 15:05:23;;;;;;;1.85;1.23;;;20.30;99.90;;;19.32;70.39;100158.03;5004170;28;20230;-83
2022/09/21 15:11:23;;;;;;;3.25;2.05;;;20.50;99.90;;;19.25;69.80;100107.34;5023745;28;20206;-83
2022/09/21 15:14:20;;;;;;;3.78;2.13;;;20.30;99.90;;;19.23;70.58;100125.25;5024507;28;20207;-83
2022/09/21 15:16:50;;;;;;;2.72;1.55;;;20.80;99.90;;;19.10;71.43;100122.09;5007940;28;20210;-81
2022/09/21 15:19:28;;;;;;;3.85;2.05;;;21.10;99.90;;;19.08;71.49;100127.50;5027290;28;20207;-83
2022/09/21 15:22:19;;;;;;;2.25;1.30;;;21.30;99.90;;;19.13;73.73;100152.34;5018383;28;20203;-82
2022/09/21 15:24:54;;;;;;;3.65;2.03;;;21.50;99.90;;;19.54;71.03;100177.06;5015519;28;20269;-84
2022/09/21 15:27:27;;;;;;;4.43;2.65;;;21.60;99.90;;;19.79;73.83;100241.56;5006351;28;20215;-82
2022/09/21 15:29:55;;;;;;;1.15;0.85;;;21.30;99.90;;;20.05;70.73;100220.13;5006901;28;20234;-81
2022/09/21 15:32:40;;;;;;;1.88;0.95;;;21.20;99.90;;;19.95;68.64;100143.50;5029733;28;20210;-83
2022/09/21 15:35:33;;;;;;;1.63;1.02;;;20.80;99.90;;;20.16;64.78;100076.59;5027405;28;20218;-83
2022/09/21 15:38:01;;;;;;;1.45;1.00;;;21.10;99.90;;;20.10;62.17;100014.13;5020995;23;20507;-78
2022/09/21 15:40:35;;;;;;;3.33;1.85;;;21.20;99.90;;;19.92;63.37;99997.81;4967624;28;20595;-76
2022/09/21 15:43:18;;;;;;;4.22;2.30;;;20.90;99.90;;;19.56;63.65;99932.94;4981632;28;20211;-78
2022/09/21 15:45:59;;;;;;;2.47;1.63;;;20.60;99.90;;;19.62;65.24;99964.91;4996202;28;20227;-77
2022/09/21 15:48:38;;;;;;;2.20;1.40;;;21.50;99.90;;;19.59;65.67;99975.75;4996465;28;20231;-78
2022/09/21 15:51:23;;;;;;;3.22;2.00;;;20.20;99.90;;;19.23;64.89;99890.25;4988493;28;20211;-77
2022/09/21 15:54:31;;;;;;;4.53;2.20;;;19.90;99.90;;;19.16;64.01;99875.31;4986732;28;20227;-75
2022/09/21 15:57:24;;;;;;;4.70;2.45;;;19.50;99.90;;;19.29;65.82;99929.38;4985466;28;20204;-76
2022/09/21 15:59:52;;;;;;;2.80;1.60;;;19.70;99.90;;;18.93;64.58;99837.72;5003683;28;20219;-77
2022/09/21 16:02:24;;;;;;;2.80;1.48;;;19.60;99.90;;;19.11;65.38;99880.81;4981720;28;20205;-78
2022/09/21 16:04:52;;;;;;;2.53;1.50;;;19.50;99.90;;;19.29;68.47;99953.50;4990376;28;20226;-78
2022/09/21 16:07:31;;;;;;;3.10;1.70;;;19.60;99.90;;;19.13;65.61;99891.50;5004273;28;20262;-76
2022/09/21 16:10:02;;;;;;;2.85;1.58;;;19.60;99.90;;;19.01;65.90;99863.31;4998757;28;20710;-77
2022/09/21 16:12:39;;;;;;;2.95;1.63;;;19.70;99.90;;;19.09;66.83;99896.06;5010408;28;20210;-77
2022/09/21 16:15:30;;;;;;;3.30;1.63;;;19.60;99.90;;;18.44;67.93;99801.84;4985752;28;20234;-77
2022/09/21 16:18:02;;;;;;;3.67;1.88;;;19.20;99.90;;;18.29;67.15;99800.53;5001135;28;20601;-78
2022/09/21 16:20:37;;;;;;;3.40;1.75;;;19.50;99.90;;;18.09;68.29;99792.25;4984494;28;20197;-77
2022/09/21 16:23:18;;;;;;;3.47;1.70;;;19.10;99.90;;;18.54;67.86;99856.84;4995722;28;20270;-78
2022/09/21 16:25:59;;;;;;;5.10;2.38;;;19.50;99.90;;;19.08;69.13;99960.44;4987350;28;20220;-78
2022/09/21 16:28:38;;;;;;;3.88;1.70;;;20.20;99.90;;;19.24;71.87;100022.47;5003172;28;20210;-78
2022/09/21 16:31:35;;;;;;;4.20;2.10;;;20.60;99.90;;;18.84;72.45;99984.44;4973791;28;20238;-78
2022/09/21 16:34:20;;;;;;;3.72;1.80;;;20.80;99.90;;;19.13;71.63;100007.63;4978618;28;20605;-78
2022/09/21 16:36:53;;;;;;;2.72;1.60;;;20.90;99.90;;;18.65;70.21;99919.00;5004700;28;20214;-78
2022/09/21 16:39:33;;;;;;;2.10;1.40;;;21.00;99.90;;;18.34;74.19;99940.47;5017636;28;20250;-82
2022/09/21 16:42:03;;;;;;;3.60;1.80;;;20.30;99.90;;;17.85;70.75;99826.88;4998509;28;20206;-82
2022/09/21 16:44:38;;;;;;;3.17;1.65;;;19.30;99.90;;;18.12;71.65;99893.84;5013185;28;20227;-82
2022/09/21 16:47:17;;;;;;;3.15;1.90;;;19.10;99.90;;;17.82;69.89;99815.38;5007717;28;20211;-82
2022/09/21 16:49:45;;;;;;;2.85;1.48;;;19.00;99.90;;;17.61;71.32;99822.22;4983341;28;20227;-82
2022/09/21 16:52:15;;;;;;;5.32;2.13;;;18.50;99.90;;;17.48;71.60;99808.34;5005149;28;20212;-81
2022/09/21 16:54:44;;;;;;;4.75;2.13;;;18.10;99.90;;;17.08;71.64;99767.63;5018275;28;20239;-80
2022/09/21 16:57:13;;;;;;;6.10;2.45;;;17.80;99.90;;;16.92;73.70;99808.13;5007146;28;20212;-80
2022/09/21 16:59:41;;;;;;;2.88;1.40;;;17.50;99.90;;;16.88;74.25;99822.44;4995389;28;20223;-80
2022/09/21 17:02:12;;;;;;;5.43;2.17;;;17.50;99.90;;;16.69;75.51;99834.53;5016094;28;20585;-80
2022/09/21 17:04:41;;;;;;;4.95;2.03;;;17.50;99.90;;;16.73;77.12;99881.59;5009391;28;20224;-80
2022/09/21 17:07:13;;;;;;;3.63;1.77;;;17.60;99.90;;;17.11;78.76;99970.59;4984893;28;20200;-80
2022/09/21 17:09:45;;;;;;;4.40;2.08;;;18.00;99.90;;;16.52;76.82;99887.41;4994061;28;20247;-80
2022/09/21 17:12:16;;;;;;;4.25;1.88;;;17.70;99.90;;;16.23;79.09;99894.31;4999208;28;20631;-81
2022/09/21 17:14:45;;;;;;;4.75;2.05;;;17.50;99.90;;;16.32;80.85;99947.47;4978652;28;20238;-80
2022/09/21 17:17:23;;;;;;;2.65;1.38;;;17.50;99.90;;;16.26;82.09;99992.94;5006277;28;20211;-80
2022/09/21 17:19:52;;;;;;;3.65;1.70;;;17.70;99.90;;;16.51;82.90;100048.47;4998810;28;20212;-81
2022/09/21 17:22:21;;;;;;;3.60;1.75;;;17.70;99.90;;;16.52;82.67;100052.91;5001820;28;20219;-80
2022/09/21 17:24:50;;;;;;;5.05;2.28;;;17.70;99.90;;;16.36;83.84;100059.47;5005243;28;20235;-81
2022/09/21 17:27:22;;;;;;;2.30;1.38;;;17.60;99.90;;;16.23;84.69;100088.19;5004669;28;20216;-82
2022/09/21 17:29:52;;;;;;;2.25;1.35;;;17.50;99.90;;;15.96;85.17;100069.13;5003024;28;20232;-82
2022/09/21 17:32:23;;;;;;;1.88;1.15;;;17.40;99.90;;;15.86;87.86;100118.22;5005273;28;20207;-82
2022/09/21 17:35:18;;;;;;;1.80;1.20;;;17.20;99.90;;;15.73;88.01;100135.31;5002010;28;20243;-81
2022/09/21 17:37:45;;;;;;;4.80;2.38;;;17.00;99.90;;;15.65;87.47;100130.13;5035143;23;20227;-81
2022/09/21 17:40:14;;;;;;;3.15;1.98;;;16.80;99.90;;;15.47;88.77;100146.34;5025963;28;20212;-80
2022/09/21 17:42:47;;;;;;;4.18;2.22;;;16.70;99.90;;;15.25;90.51;100169.75;5023801;28;20203;-81
2022/09/21 17:45:57;;;;;;;2.90;1.65;;;16.50;99.90;;;14.76;91.55;100164.22;5037759;28;20233;-80
2022/09/21 17:48:26;;;;;;;1.95;1.40;;;16.20;99.90;;;14.77;92.53;100205.91;5035763;28;20221;-80
2022/09/21 17:51:01;;;;;;;1.35;1.10;;;15.80;99.90;;;14.77;93.84;100248.50;5046622;28;20237;-81
2022/09/21 17:53:33;;;;;;;1.23;0.90;;;15.60;99.90;;;14.38;93.32;100233.78;5026915;28;20202;-78
2022/09/21 17:56:39;;;;;;;1.17;0.95;;;15.50;99.90;;;14.46;94.48;100276.31;5024637;28;20226;-78
2022/09/21 17:59:26;;;;;;;1.70;1.23;;;15.10;99.90;;;14.33;93.29;100264.88;4998681;28;20218;-80
2022/09/21 18:01:58;;;;;;;2.10;1.48;;;15.10;99.90;;;14.16;93.87;100274.75;5027400;28;20202;-81
2022/09/21 18:04:33;;;;;;;2.53;1.58;;;15.00;99.90;;;13.87;92.98;100259.00;5028690;28;20230;-82
2022/09/21 18:07:02;;;;;;;2.58;1.58;;;14.70;99.90;;;13.86;92.62;100266.09;5036745;28;20202;-81
2022/09/21 18:09:30;;;;;;;2.95;1.90;;;14.50;99.90;;;13.92;92.74;100274.03;5036955;28;20254;-81
2022/09/21 18:12:42;;;;;;;3.03;1.77;;;14.50;99.90;;;13.81;94.08;100278.53;5043654;28;20206;-81
2022/09/21 18:15:39;;;;;;;4.40;2.10;;;14.50;99.90;;;13.63;97.23;100319.41;5020202;28;20223;-81
2022/09/21 18:18:41;;;;;;;5.18;2.30;;;14.30;99.90;;;13.45;99.53;100356.69;5006063;28;20215;-79
2022/09/21 18:21:19;;;;;;;5.47;2.40;;;14.20;99.90;;;13.43;99.15;100380.59;5029399;28;20210;-80
2022/09/21 18:24:19;;;;;;;7.05;3.17;;;14.00;99.90;;;13.26;100.00;100387.72;5040881;28;20203;-79
2022/09/21 18:26:48;;;;;;;9.13;3.22;;;14.00;99.90;;;13.25;97.29;100375.34;5033858;28;20226;-81
2022/09/21 18:29:32;;;;;;;6.60;2.37;;;13.80;99.90;;;13.07;100.00;100424.03;5023165;28;20215;-79
2022/09/21 18:32:30;;;;;;;10.15;3.25;;;13.80;99.90;;;12.95;100.00;100468.25;5041234;28;20230;-79
2022/09/21 18:35:24;;;;;;;11.30;3.35;;;13.60;99.90;;;12.72;100.00;100470.91;5038464;28;20246;-80
2022/09/21 18:38:31;;;;;;;14.65;4.43;;;13.40;99.90;;;12.57;100.00;100490.34;5052819;23;20235;-83
2022/09/21 18:41:20;;;;;;;12.65;3.42;;;13.20;99.90;;;12.38;100.00;100496.47;4994010;28;20199;-83
2022/09/21 18:44:09;;;;;;;15.57;4.38;;;13.00;99.90;;;12.10;100.00;100492.84;5011772;28;20238;-83
2022/09/21 18:47:01;;;;;;;13.52;3.95;;;12.90;99.90;;;12.03;100.00;100522.88;4998560;28;20204;-83
2022/09/21 18:49:50;;;;;;;9.98;2.83;;;12.70;99.90;;;11.96;100.00;100545.81;5003406;28;20201;-83
2022/09/21 18:52:45;;;;;;;9.02;2.72;;;12.50;99.90;;;11.92;100.00;100551.09;4980365;28;20212;-80
2022/09/21 18:55:26;;;;;;;13.52;3.85;;;12.40;99.90;;;11.78;100.00;100558.97;5007224;28;20254;-81
2022/09/21 18:57:56;;;;;;;15.20;4.15;;;12.30;99.90;;;11.95;100.00;100583.78;5001371;28;20578;-83
2022/09/21 19:00:30;;;;;;;9.05;2.60;;;12.20;99.90;;;11.85;100.00;100581.97;4992282;28;20621;-83
2022/09/21 19:03:16;;;;;;;12.05;3.45;;;12.20;99.90;;;11.66;100.00;100598.53;5012613;28;20214;-82
2022/09/21 19:06:38;;;;;;;9.63;2.67;;;12.10;99.90;;;11.47;100.00;100616.06;4981791;28;20220;-80
2022/09/21 19:09:42;;;;;;;7.30;2.33;;;11.90;99.90;;;11.54;100.00;100631.13;4999435;28;20204;-79
2022/09/21 19:12:51;;;;;;;8.07;2.35;;;11.90;99.90;;;11.38;100.00;100632.75;5004558;28;20203;-81
2022/09/21 19:15:47;;;;;;;13.18;3.80;;;11.80;99.90;;;11.46;100.00;100639.00;4987215;28;20231;-81
2022/09/21 19:18:53;;;;;;;11.15;3.08;;;11.70;99.90;;;11.17;100.00;100627.25;4994413;28;20206;-80
2022/09/21 19:21:37;;;;;;;12.85;3.50;;;11.70;99.90;;;11.10;100.00;100659.84;4989197;28;20215;-79
2022/09/21 19:24:31;;;;;;;9.57;2.80;;;11.50;99.90;;;11.13;100.00;100666.06;5003718;28;20678;-80
2022/09/21 19:27:49;;;;;;;9.55;3.03;;;11.40;99.90;;;10.93;100.00;100678.19;4989762;28;20212;-80
2022/09/21 19:30:18;;;;;;;8.35;2.58;;;11.40;99.90;;;10.74;100.00;100686.78;4982564;28;20208;-80
2022/09/21 19:32:59;;;;;;;11.25;3.45;;;11.30;99.90;;;10.74;100.00;100707.94;5008981;28;20588;-79
2022/09/21 19:35:32;;;;;;;8.43;2.63;;;11.10;99.90;;;10.75;100.00;100715.88;5008549;28;20663;-80
2022/09/21 19:38:02;;;;;;;10.75;3.10;;;11.00;99.90;;;10.81;100.00;100721.25;5009662;28;20220;-82
2022/09/21 19:40:34;;;;;;;8.88;2.55;;;11.00;99.90;;;10.64;100.00;100721.91;5010477;28;20223;-82
2022/09/21 19:43:39;;;;;;;8.30;2.55;;;11.00;99.90;;;10.57;100.00;100727.13;4990596;28;20223;-82
2022/09/21 19:46:21;;;;;;;8.15;2.38;;;10.90;99.90;;;10.73;100.00;100733.50;4988942;28;20228;-82
2022/09/21 19:48:58;;;;;;;11.43;3.20;;;10.90;99.90;;;10.72;100.00;100725.53;5002050;28;20223;-81
2022/09/21 19:51:52;;;;;;;10.02;2.85;;;11.00;99.90;;;10.55;100.00;100714.75;4988426;28;20646;-80
2022/09/21 20:00:04;;;;;;;11.32;3.15;;;10.70;99.90;;;10.39;100.00;100740.03;5002348;28;20240;-82
2022/09/21 20:02:39;;;;;;;8.75;2.53;;;10.60;99.90;;;10.57;100.00;100737.69;5002642;28;20226;-80
2022/09/21 20:05:15;;;;;;;13.43;3.67;;;10.70;99.90;;;10.47;100.00;100735.78;4984950;28;20602;-79
2022/09/21 20:07:50;;;;;;;11.65;3.30;;;10.60;99.90;;;10.34;100.00;100733.81;4984614;28;20694;-80
2022/09/21 20:10:50;;;;;;;13.07;3.55;;;10.60;99.90;;;10.25;100.00;100738.94;5002529;28;20211;-82
2022/09/21 20:13:58;;;;;;;10.35;2.80;;;10.50;99.90;;;10.06;100.00;100753.59;5002949;28;20216;-82
2022/09/21 20:16:46;;;;;;;10.43;2.78;;;10.40;99.90;;;10.29;100.00;100766.31;4988428;28;20224;-80
2022/09/21 20:19:57;;;;;;;8.98;2.45;;;10.40;99.90;;;10.23;100.00;100768.00;5010841;28;20205;-80
2022/09/21 20:22:39;;;;;;;13.98;3.90;;;10.40;99.90;;;10.30;100.00;100766.34;4990968;28;20235;-81
2022/09/21 20:25:36;;;;;;;12.15;3.45;;;10.40;99.90;;;10.17;100.00;100762.59;5005213;28;20274;-82
2022/09/21 20:28:05;;;;;;;5.93;2.33;;;10.30;99.90;;;10.26;100.00;100757.47;4990066;28;20667;-82
2022/09/21 20:30:38;;;;;;;7.03;2.75;;;10.30;99.90;;;10.19;100.00;100755.56;5004836;28;20210;-80
2022/09/21 20:33:14;;;;;;;7.50;2.85;;;10.30;99.90;;;10.09;100.00;100763.34;4988628;28;20216;-80
2022/09/21 20:35:42;;;;;;;5.97;2.10;;;10.30;99.90;;;9.98;100.00;100770.19;5004647;28;20231;-82
2022/09/21 20:38:10;;;;;;;18.35;5.70;;;10.20;99.90;;;10.00;100.00;100785.22;5113348;23;20233;-88
2022/09/21 20:40:39;;;;;;;14.65;4.85;;;10.10;99.90;;;9.71;100.00;100781.16;5021417;28;20237;-87
2022/09/21 20:43:08;;;;;;;16.42;4.95;;;10.10;99.90;;;9.75;100.00;100789.19;5009000;28;20210;-87
2022/09/21 20:45:39;;;;;;;12.98;3.97;;;10.00;99.90;;;9.67;100.00;100788.16;5020431;28;20686;-86
2022/09/21 20:48:14;;;;;;;15.80;4.63;;;10.00;99.90;;;9.79;100.00;100779.56;5027465;28;20210;-87
2022/09/21 20:50:47;;;;;;;16.25;4.85;;;9.90;99.90;;;9.85;100.00;100783.19;5008050;28;20225;-87
2022/09/21 20:53:18;;;;;;;17.55;5.20;;;10.00;99.90;;;9.70;100.00;100792.59;5004748;28;20657;-89
2022/09/21 20:55:55;;;;;;;15.05;5.15;;;9.90;99.90;;;9.79;100.00;100809.50;5004855;28;20234;-88
2022/09/21 20:58:24;;;;;;;17.63;5.30;;;9.90;99.90;;;9.48;100.00;100797.47;5006700;28;20207;-87
2022/09/21 21:00:52;;;;;;;17.48;5.32;;;9.70;99.90;;;9.79;100.00;100790.13;5022557;28;20223;-87
2022/09/21 21:03:26;;;;;;;16.55;5.28;;;9.80;99.90;;;9.73;100.00;100796.19;5023210;28;20210;-90
2022/09/21 21:06:10;;;;;;;17.23;5.35;;;9.40;99.90;;;9.54;100.00;100804.63;5024192;28;20234;-87
2022/09/21 21:08:39;;;;;;;16.42;4.85;;;9.80;99.90;;;9.40;100.00;100809.63;5024780;28;20208;-87
2022/09/21 21:11:07;;;;;;;14.07;4.10;;;9.60;99.90;;;9.58;100.00;100811.75;5030589;28;20206;-87
2022/09/21 21:13:35;;;;;;;14.43;4.05;;;9.60;99.90;;;9.77;100.00;100805.94;5002810;28;20212;-88
2022/09/21 21:16:04;;;;;;;14.63;4.00;;;9.60;99.90;;;9.83;100.00;100789.31;5026921;28;20588;-91
2022/09/21 21:18:40;;;;;;;15.18;4.57;;;9.60;99.90;;;9.69;100.00;100782.91;5009110;28;20210;-89
2022/09/21 21:21:08;;;;;;;14.07;4.55;;;9.70;99.90;;;9.61;100.00;100783.66;5023490;28;20219;-87
2022/09/21 21:26:24;;;;;;;16.50;4.70;;;9.60;99.90;;;9.38;100.00;100797.28;5017049;28;20207;-92
2022/09/21 21:29:13;;;;;;;16.75;5.07;;;9.50;99.90;;;9.26;100.00;100803.19;5026854;28;20198;-90
2022/09/21 21:31:43;;;;;;;14.35;4.07;;;9.40;99.90;;;9.34;100.00;100814.81;5026581;28;20214;-87
2022/09/21 21:34:11;;;;;;;15.02;4.18;;;9.40;99.90;;;9.25;100.00;100811.97;5013763;28;20225;-86
2022/09/21 21:36:40;;;;;;;19.15;5.32;;;9.30;99.90;;;9.26;100.00;100816.38;5016305;28;20689;-87
2022/09/21 21:39:09;;;;;;;14.27;4.25;;;9.40;99.90;;;9.08;100.00;100821.25;5011056;28;20210;-85
2022/09/21 21:41:37;;;;;;;15.60;4.38;;;9.30;99.90;;;9.09;100.00;100821.28;5011055;28;20247;-85
2022/09/21 21:44:05;;;;;;;19.83;5.25;;;9.20;99.90;;;9.12;100.00;100823.13;5024573;28;20206;-85
2022/09/21 21:46:33;;;;;;;20.25;5.20;;;9.20;99.90;;;9.20;100.00;100825.06;5012067;28;20229;-85
2022/09/21 21:49:01;;;;;;;13.73;4.15;;;9.20;99.90;;;9.13;100.00;100809.09;4999913;28;20215;-85
2022/09/21 21:51:29;;;;;;;15.75;4.60;;;9.20;99.90;;;9.12;100.00;100804.66;5025800;28;20215;-85
2022/09/21 21:53:58;;;;;;;22.90;6.43;;;9.20;99.90;;;9.12;100.00;100820.50;5012395;28;20199;-86
2022/09/21 21:56:26;;;;;;;14.15;4.32;;;9.20;99.90;;;9.16;100.00;100830.25;5014225;28;20214;-86
2022/09/21 21:58:55;;;;;;;15.93;4.50;;;9.20;99.90;;;9.24;100.00;100826.03;5009062;28;20199;-85
2022/09/21 22:01:26;;;;;;;20.42;5.43;;;9.20;99.90;;;9.13;100.00;100833.72;5027655;28;20224;-85
2022/09/21 22:04:00;;;;;;;22.48;6.05;;;9.20;99.90;;;9.09;100.00;100831.84;5027050;28;20214;-85
2022/09/21 22:06:30;;;;;;;12.95;3.78;;;9.20;99.90;;;8.91;100.00;100840.25;5009472;28;20222;-85
2022/09/21 22:09:00;;;;;;;17.67;5.00;;;9.10;99.90;;;8.93;100.00;100843.81;5007945;28;20215;-85
2022/09/21 22:11:29;;;;;;;20.48;5.47;;;9.00;99.90;;;8.82;100.00;100847.97;5027199;28;20226;-85
2022/09/21 22:14:00;;;;;;;21.95;5.88;;;9.00;99.90;;;8.73;100.00;100854.75;5012200;28;20207;-85
2022/09/21 22:16:31;;;;;;;20.85;5.65;;;8.90;99.90;;;8.67;100.00;100863.44;5031659;28;20199;-85
2022/09/21 22:19:06;;;;;;;14.82;3.97;;;8.80;99.90;;;8.70;100.00;100857.34;5015836;28;20661;-85
2022/09/21 22:21:46;;;;;;;19.55;5.43;;;8.80;99.90;;;8.73;100.00;100862.69;5012353;28;20224;-85
2022/09/21 22:24:22;;;;;;;15.40;4.68;;;8.50;99.90;;;8.55;100.00;100865.78;5025827;28;20234;-85
2022/09/21 22:26:50;;;;;;;17.02;5.15;;;8.70;99.90;;;8.59;100.00;100863.25;5013637;28;20210;-85
2022/09/21 22:29:19;;;;;;;14.45;4.38;;;8.80;99.90;;;8.59;100.00;100867.63;5007389;28;20196;-87
2022/09/21 22:31:48;;;;;;;18.52;5.30;;;8.60;99.90;;;8.66;100.00;100864.28;5007918;28;20230;-87
2022/09/21 22:34:19;;;;;;;15.25;4.28;;;8.70;99.90;;;8.71;100.00;100867.03;5010268;28;20246;-88
2022/09/21 22:36:47;;;;;;;15.30;4.40;;;8.70;99.90;;;8.68;100.00;100873.13;5032543;28;20207;-89
2022/09/21 22:39:15;;;;;;;17.00;4.55;;;8.70;99.90;;;8.72;100.00;100868.81;5064741;22;20246;-82
2022/09/21 22:41:43;;;;;;;19.92;5.45;;;;;;;8.43;100.00;100873.38;5040016;28;20237;-82
2022/09/21 22:44:11;;;;;;;16.55;4.50;;;8.70;99.90;;;8.21;100.00;100872.81;5013989;28;20222;-82
2022/09/21 22:46:39;;;;;;;19.00;5.13;;;8.60;99.90;;;8.14;100.00;100891.06;5040631;28;20527;-81
2022/09/21 22:49:07;;;;;;;18.17;4.93;;;8.40;99.90;;;8.15;100.00;100893.72;5029602;28;20208;-81
2022/09/21 22:51:36;;;;;;;19.58;5.38;;;8.40;99.90;;;8.10;100.00;100898.00;5034084;28;20213;-81
2022/09/21 22:54:05;;;;;;;4.50;3.00;;;8.30;99.90;;;7.92;100.00;100910.66;5037042;28;20211;-79